createdAt,value
2022-09-23T00:00:22.397Z,1007.80
2022-09-23T00:01:22.463Z,1007.77
2022-09-23T00:02:22.760Z,1007.80
2022-09-23T00:03:22.375Z,1007.79
2022-09-23T00:04:22.377Z,1007.72
2022-09-23T00:05:22.376Z,1007.72
2022-09-23T00:06:22.377Z,1007.73
2022-09-23T00:07:22.354Z,1007.70
2022-09-23T00:08:22.347Z,1007.75
2022-09-23T00:09:22.784Z,1007.75
2022-09-23T00:10:22.794Z,1007.76
2022-09-23T00:11:22.384Z,1007.71
2022-09-23T00:12:22.324Z,1007.75
2022-09-23T00:13:22.316Z,1007.76
2022-09-23T00:14:22.403Z,1007.76
2022-09-23T00:15:22.304Z,1007.77
2022-09-23T00:16:22.615Z,1007.78
2022-09-23T00:17:22.284Z,1007.75
2022-09-23T00:18:22.343Z,1007.73
2022-09-23T00:19:22.354Z,1007.74
2022-09-23T00:20:22.264Z,1007.73
2022-09-23T00:21:22.295Z,1007.69
2022-09-23T00:22:22.252Z,1007.65
2022-09-23T00:23:22.251Z,1007.68
2022-09-23T00:24:22.509Z,1007.66
2022-09-23T00:25:22.232Z,1007.70
2022-09-23T00:26:22.247Z,1007.68
2022-09-23T00:27:22.732Z,1007.69
2022-09-23T00:28:22.212Z,1007.66
2022-09-23T00:29:22.262Z,1007.64
2022-09-23T00:30:22.242Z,1007.64
2022-09-23T00:31:22.890Z,1007.66
2022-09-23T00:32:22.959Z,1007.60
2022-09-23T00:33:22.971Z,1007.65
2022-09-23T00:34:22.180Z,1007.69
2022-09-23T00:35:23.079Z,1007.69
2022-09-23T00:36:23.029Z,1007.67
2022-09-23T00:37:23.129Z,1007.69
2022-09-23T00:38:22.319Z,1007.57
2022-09-23T00:39:22.998Z,1007.62
2022-09-23T00:40:23.246Z,1007.63
2022-09-23T00:41:22.147Z,1007.63
2022-09-23T00:42:22.435Z,1007.57
2022-09-23T00:43:22.118Z,1007.63
2022-09-23T00:44:22.326Z,1007.58
2022-09-23T00:45:22.218Z,1007.62
2022-09-23T00:46:23.126Z,1007.63
2022-09-23T00:47:22.997Z,1007.63
2022-09-23T00:48:22.897Z,1007.59
2022-09-23T00:49:22.077Z,1007.56
2022-09-23T00:50:22.149Z,1007.57
2022-09-23T00:51:22.068Z,1007.54
2022-09-23T00:52:22.267Z,1007.58
2022-09-23T00:53:22.049Z,1007.56
2022-09-23T00:54:22.280Z,1007.55
2022-09-23T00:55:22.283Z,1007.51
2022-09-23T00:56:22.287Z,1007.51
2022-09-23T00:57:22.415Z,1007.48
2022-09-23T00:58:22.426Z,1007.49
2022-09-23T00:59:22.437Z,1007.50
2022-09-23T01:00:22.548Z,1007.44
2022-09-23T01:01:22.662Z,1007.47
2022-09-23T01:02:22.188Z,1007.47
2022-09-23T01:03:22.665Z,1007.51
2022-09-23T01:04:22.666Z,1007.42
2022-09-23T01:05:22.068Z,1007.43
2022-09-23T01:06:22.764Z,1007.44
2022-09-23T01:07:22.874Z,1007.47
2022-09-23T01:08:22.774Z,1007.42
2022-09-23T01:09:22.915Z,1007.42
2022-09-23T01:10:22.844Z,1007.41
2022-09-23T01:11:22.744Z,1007.43
2022-09-23T01:12:22.913Z,1007.40
2022-09-23T01:13:22.804Z,1007.37
2022-09-23T01:14:21.992Z,1007.38
2022-09-23T01:15:22.744Z,1007.36
2022-09-23T01:16:22.072Z,1007.38
2022-09-23T01:17:21.942Z,1007.41
2022-09-23T01:18:21.951Z,1007.35
2022-09-23T01:19:22.039Z,1007.36
2022-09-23T01:20:22.041Z,1007.34
2022-09-23T01:21:22.174Z,1007.28
2022-09-23T01:22:22.181Z,1007.32
2022-09-23T01:23:22.191Z,1007.26
2022-09-23T01:24:22.192Z,1007.22
2022-09-23T01:25:22.280Z,1007.26
2022-09-23T01:26:21.821Z,1007.24
2022-09-23T01:27:21.832Z,1007.25
2022-09-23T01:28:21.820Z,1007.27
2022-09-23T01:29:21.812Z,1007.20
2022-09-23T01:30:21.890Z,1007.15
2022-09-23T01:31:22.065Z,1007.17
2022-09-23T01:32:22.047Z,1007.14
2022-09-23T01:33:22.062Z,1007.15
2022-09-23T01:34:22.049Z,1007.16
2022-09-23T01:35:21.929Z,1007.09
2022-09-23T01:36:22.076Z,1007.09
2022-09-23T01:37:22.279Z,1007.16
2022-09-23T01:38:22.289Z,1007.16
2022-09-23T01:39:22.297Z,1007.10
2022-09-23T01:40:21.785Z,1007.07
2022-09-23T01:41:21.908Z,1006.98
2022-09-23T01:42:21.765Z,1006.97
2022-09-23T01:43:21.986Z,1006.96
2022-09-23T01:44:22.527Z,1006.96
2022-09-23T01:45:22.574Z,1006.95
2022-09-23T01:46:22.610Z,1006.98
2022-09-23T01:47:22.616Z,1006.97
2022-09-23T01:48:22.601Z,1006.99
2022-09-23T01:49:21.766Z,1006.97
2022-09-23T01:50:22.206Z,1006.94
2022-09-23T01:51:21.835Z,1006.94
2022-09-23T01:52:22.586Z,1006.96
2022-09-23T01:53:21.646Z,1006.96
2022-09-23T01:54:21.645Z,1006.95
2022-09-23T01:55:21.654Z,1006.95
2022-09-23T01:56:21.634Z,1006.92
2022-09-23T01:57:21.647Z,1006.93
2022-09-23T01:58:21.714Z,1006.95
2022-09-23T01:59:21.622Z,1006.96
2022-09-23T02:00:21.687Z,1006.93
2022-09-23T02:01:21.754Z,1006.92
2022-09-23T02:02:21.620Z,1006.91
2022-09-23T02:03:21.644Z,1006.90
2022-09-23T02:04:21.642Z,1006.91
2022-09-23T02:05:21.674Z,1006.93
2022-09-23T02:06:21.553Z,1006.92
2022-09-23T02:07:21.563Z,1006.93
2022-09-23T02:08:21.542Z,1006.94
2022-09-23T02:09:21.531Z,1006.92
2022-09-23T02:10:21.539Z,1006.96
2022-09-23T02:11:21.523Z,1006.95
2022-09-23T02:12:21.530Z,1006.96
2022-09-23T02:13:21.514Z,1006.90
2022-09-23T02:14:21.501Z,1006.93
2022-09-23T02:15:21.501Z,1006.92
2022-09-23T02:16:21.574Z,1006.96
2022-09-23T02:17:21.510Z,1006.94
2022-09-23T02:18:21.470Z,1006.94
2022-09-23T02:19:21.476Z,1006.91
2022-09-23T02:20:21.498Z,1006.91
2022-09-23T02:21:21.459Z,1006.97
2022-09-23T02:22:21.478Z,1006.92
2022-09-23T02:23:21.442Z,1006.86
2022-09-23T02:24:21.429Z,1006.91
2022-09-23T02:25:21.425Z,1006.91
2022-09-23T02:26:21.418Z,1006.92
2022-09-23T02:27:21.439Z,1006.91
2022-09-23T02:28:21.399Z,1006.95
2022-09-23T02:29:21.399Z,1006.89
2022-09-23T02:30:21.389Z,1006.95
2022-09-23T02:31:21.457Z,1006.95
2022-09-23T02:32:21.377Z,1006.88
2022-09-23T02:33:21.438Z,1006.94
2022-09-23T02:34:21.388Z,1006.94
2022-09-23T02:35:21.389Z,1006.88
2022-09-23T02:36:21.500Z,1006.84
2022-09-23T02:37:21.344Z,1006.87
2022-09-23T02:38:21.349Z,1006.87
2022-09-23T02:39:21.328Z,1006.95
2022-09-23T02:40:21.376Z,1006.86
2022-09-23T02:41:21.325Z,1006.87
2022-09-23T02:42:21.315Z,1006.90
2022-09-23T02:43:21.336Z,1006.85
2022-09-23T02:44:21.306Z,1006.81
2022-09-23T02:45:21.295Z,1006.87
2022-09-23T02:46:21.345Z,1006.84
2022-09-23T02:47:21.295Z,1006.76
2022-09-23T02:48:21.268Z,1006.82
2022-09-23T02:49:21.269Z,1006.78
2022-09-23T02:50:21.284Z,1006.75
2022-09-23T02:51:21.265Z,1006.77
2022-09-23T02:52:21.288Z,1006.78
2022-09-23T02:53:21.245Z,1006.72
2022-09-23T02:54:21.233Z,1006.74
2022-09-23T02:55:21.224Z,1006.70
2022-09-23T02:56:21.213Z,1006.70
2022-09-23T02:57:21.231Z,1006.68
2022-09-23T02:58:21.394Z,1006.65
2022-09-23T02:59:21.213Z,1006.68
2022-09-23T03:00:21.815Z,1006.66
2022-09-23T03:01:21.259Z,1006.65
2022-09-23T03:02:21.230Z,1006.61
2022-09-23T03:03:21.171Z,1006.58
2022-09-23T03:04:21.162Z,1006.53
2022-09-23T03:05:22.041Z,1006.58
2022-09-23T03:06:22.282Z,1006.53
2022-09-23T03:07:22.102Z,1006.59
2022-09-23T03:08:22.012Z,1006.52
2022-09-23T03:09:21.132Z,1006.57
2022-09-23T03:10:21.120Z,1006.54
2022-09-23T03:11:21.126Z,1006.56
2022-09-23T03:12:21.131Z,1006.61
2022-09-23T03:13:21.160Z,1006.58
2022-09-23T03:14:21.102Z,1006.60
2022-09-23T03:15:21.091Z,1006.57
2022-09-23T03:16:21.120Z,1006.52
2022-09-23T03:17:21.078Z,1006.53
2022-09-23T03:18:21.079Z,1006.52
2022-09-23T03:19:21.389Z,1006.55
2022-09-23T03:20:21.548Z,1006.56
2022-09-23T03:21:21.140Z,1006.49
2022-09-23T03:22:21.160Z,1006.48
2022-09-23T03:23:21.148Z,1006.45
2022-09-23T03:24:21.157Z,1006.49
2022-09-23T03:25:21.049Z,1006.45
2022-09-23T03:26:21.018Z,1006.41
2022-09-23T03:27:21.008Z,1006.42
2022-09-23T03:28:21.019Z,1006.46
2022-09-23T03:29:20.998Z,1006.40
2022-09-23T03:30:20.989Z,1006.40
2022-09-23T03:31:21.028Z,1006.40
2022-09-23T03:32:20.975Z,1006.40
2022-09-23T03:33:20.989Z,1006.41
2022-09-23T03:34:20.982Z,1006.34
2022-09-23T03:35:20.962Z,1006.37
2022-09-23T03:36:20.968Z,1006.37
2022-09-23T03:37:20.939Z,1006.33
2022-09-23T03:38:21.096Z,1006.38
2022-09-23T03:39:20.935Z,1006.34
2022-09-23T03:40:20.962Z,1006.40
2022-09-23T03:41:20.917Z,1006.37
2022-09-23T03:42:20.919Z,1006.36
2022-09-23T03:43:20.917Z,1006.35
2022-09-23T03:44:20.895Z,1006.37
2022-09-23T03:45:20.957Z,1006.32
2022-09-23T03:46:20.884Z,1006.29
2022-09-23T03:47:20.883Z,1006.36
2022-09-23T03:48:21.075Z,1006.32
2022-09-23T03:49:20.873Z,1006.31
2022-09-23T03:50:20.865Z,1006.30
2022-09-23T03:51:20.855Z,1006.22
2022-09-23T03:52:20.855Z,1006.22
2022-09-23T03:53:20.864Z,1006.22
2022-09-23T03:54:20.998Z,1006.23
2022-09-23T03:55:21.185Z,1006.26
2022-09-23T03:56:20.822Z,1006.20
2022-09-23T03:57:20.811Z,1006.17
2022-09-23T03:58:20.821Z,1006.17
2022-09-23T03:59:20.792Z,1006.20
2022-09-23T04:00:20.802Z,1006.09
2022-09-23T04:01:20.837Z,1006.09
2022-09-23T04:02:20.868Z,1006.10
2022-09-23T04:03:20.792Z,1006.07
2022-09-23T04:04:20.769Z,1006.10
2022-09-23T04:05:20.750Z,1006.06
2022-09-23T04:06:20.751Z,1006.03
2022-09-23T04:07:20.740Z,1006.03
2022-09-23T04:08:20.751Z,1006.10
2022-09-23T04:09:20.741Z,1006.02
2022-09-23T04:10:20.752Z,1006.03
2022-09-23T04:11:20.721Z,1006.00
2022-09-23T04:12:20.723Z,1005.94
2022-09-23T04:13:20.748Z,1005.94
2022-09-23T04:14:20.710Z,1005.93
2022-09-23T04:15:20.709Z,1005.91
2022-09-23T04:16:20.733Z,1005.94
2022-09-23T04:17:20.676Z,1005.98
2022-09-23T04:18:20.669Z,1005.90
2022-09-23T04:19:20.679Z,1005.91
2022-09-23T04:20:20.648Z,1005.94
2022-09-23T04:21:20.649Z,1005.89
2022-09-23T04:22:20.636Z,1005.88
2022-09-23T04:23:20.727Z,1005.95
2022-09-23T04:24:20.638Z,1005.92
2022-09-23T04:25:20.626Z,1005.94
2022-09-23T04:26:20.606Z,1005.94
2022-09-23T04:27:20.621Z,1005.92
2022-09-23T04:28:20.597Z,1005.90
2022-09-23T04:29:20.719Z,1005.83
2022-09-23T04:30:20.597Z,1005.87
2022-09-23T04:31:20.677Z,1005.91
2022-09-23T04:32:20.568Z,1005.86
2022-09-23T04:33:20.574Z,1005.87
2022-09-23T04:34:20.625Z,1005.89
2022-09-23T04:35:20.565Z,1005.90
2022-09-23T04:36:20.545Z,1005.94
2022-09-23T04:37:20.545Z,1005.93
2022-09-23T04:38:20.534Z,1005.92
2022-09-23T04:39:20.574Z,1005.88
2022-09-23T04:40:20.578Z,1005.87
2022-09-23T04:41:20.515Z,1005.97
2022-09-23T04:42:20.505Z,1005.95
2022-09-23T04:43:20.503Z,1005.98
2022-09-23T04:44:20.504Z,1005.99
2022-09-23T04:45:20.492Z,1005.95
2022-09-23T04:46:20.533Z,1005.96
2022-09-23T04:47:20.481Z,1005.94
2022-09-23T04:48:20.722Z,1005.95
2022-09-23T04:49:21.140Z,1005.90
2022-09-23T04:50:20.453Z,1005.91
2022-09-23T04:51:20.457Z,1005.95
2022-09-23T04:52:21.379Z,1005.87
2022-09-23T04:53:20.623Z,1005.90
2022-09-23T04:54:20.754Z,1005.88
2022-09-23T04:55:21.401Z,1005.90
2022-09-23T04:56:21.381Z,1005.90
2022-09-23T04:57:21.273Z,1005.99
2022-09-23T04:58:20.781Z,1005.94
2022-09-23T04:59:21.201Z,1005.97
2022-09-23T05:00:20.416Z,1005.95
2022-09-23T05:01:20.554Z,1006.03
2022-09-23T05:02:21.374Z,1005.97
2022-09-23T05:03:20.621Z,1005.95
2022-09-23T05:04:21.369Z,1005.94
2022-09-23T05:05:21.244Z,1005.95
2022-09-23T05:06:20.850Z,1005.92
2022-09-23T05:07:20.429Z,1005.90
2022-09-23T05:08:20.469Z,1005.95
2022-09-23T05:09:20.456Z,1005.94
2022-09-23T05:10:20.480Z,1005.98
2022-09-23T05:11:20.476Z,1005.93
2022-09-23T05:12:20.482Z,1005.95
2022-09-23T05:13:20.309Z,1005.97
2022-09-23T05:14:20.332Z,1005.93
2022-09-23T05:15:20.298Z,1005.96
2022-09-23T05:16:20.621Z,1005.95
2022-09-23T05:17:20.517Z,1005.94
2022-09-23T05:18:20.995Z,1005.94
2022-09-23T05:19:20.494Z,1005.86
2022-09-23T05:20:20.530Z,1005.93
2022-09-23T05:21:20.317Z,1005.90
2022-09-23T05:22:20.745Z,1005.89
2022-09-23T05:23:20.774Z,1005.94
2022-09-23T05:24:20.789Z,1005.84
2022-09-23T05:25:20.766Z,1005.91
2022-09-23T05:26:20.973Z,1005.89
2022-09-23T05:27:20.985Z,1005.89
2022-09-23T05:28:20.576Z,1005.83
2022-09-23T05:29:21.005Z,1005.76
2022-09-23T05:30:20.786Z,1005.82
2022-09-23T05:31:21.163Z,1005.78
2022-09-23T05:32:20.398Z,1005.80
2022-09-23T05:33:20.606Z,1005.76
2022-09-23T05:34:20.413Z,1005.73
2022-09-23T05:35:21.234Z,1005.80
2022-09-23T05:36:21.037Z,1005.73
2022-09-23T05:37:20.224Z,1005.75
2022-09-23T05:38:21.044Z,1005.70
2022-09-23T05:39:20.163Z,1005.71
2022-09-23T05:40:20.493Z,1005.71
2022-09-23T05:41:20.855Z,1005.69
2022-09-23T05:42:20.663Z,1005.72
2022-09-23T05:43:20.663Z,1005.75
2022-09-23T05:44:21.085Z,1005.74
2022-09-23T05:45:20.271Z,1005.72
2022-09-23T05:46:20.127Z,1005.70
2022-09-23T05:47:20.492Z,1005.72
2022-09-23T05:48:20.700Z,1005.72
2022-09-23T05:49:26.597Z,1005.75
2022-09-23T05:50:20.101Z,1005.73
2022-09-23T05:51:20.063Z,1005.67
2022-09-23T05:52:20.122Z,1005.75
2022-09-23T05:53:20.121Z,1005.68
2022-09-23T05:54:20.129Z,1005.74
2022-09-23T05:55:20.341Z,1005.77
2022-09-23T05:56:20.352Z,1005.75
2022-09-23T05:57:20.159Z,1005.72
2022-09-23T05:58:20.368Z,1005.66
2022-09-23T05:59:20.389Z,1005.75
2022-09-23T06:00:20.168Z,1005.70
2022-09-23T06:01:20.048Z,1005.74
2022-09-23T06:02:20.043Z,1005.78
2022-09-23T06:03:20.679Z,1005.69
2022-09-23T06:04:19.999Z,1005.73
2022-09-23T06:05:20.011Z,1005.75
2022-09-23T06:06:20.037Z,1005.73
2022-09-23T06:07:20.030Z,1005.73
2022-09-23T06:08:20.030Z,1005.76
2022-09-23T06:09:20.059Z,1005.73
2022-09-23T06:10:20.240Z,1005.78
2022-09-23T06:11:20.258Z,1005.81
2022-09-23T06:12:20.266Z,1005.81
2022-09-23T06:13:19.899Z,1005.86
2022-09-23T06:14:20.085Z,1005.81
2022-09-23T06:15:20.056Z,1005.80
2022-09-23T06:16:20.558Z,1005.80
2022-09-23T06:17:20.529Z,1005.85
2022-09-23T06:18:19.899Z,1005.81
2022-09-23T06:19:19.897Z,1005.82
2022-09-23T06:20:19.909Z,1005.82
2022-09-23T06:21:19.943Z,1005.83
2022-09-23T06:22:19.835Z,1005.77
2022-09-23T06:23:23.466Z,1005.75
2022-09-23T06:24:22.933Z,1005.78
2022-09-23T06:25:19.836Z,1005.69
2022-09-23T06:26:19.807Z,1005.68
2022-09-23T06:27:19.830Z,1005.73
2022-09-23T06:28:19.834Z,1005.76
2022-09-23T06:29:19.798Z,1005.74
2022-09-23T06:30:19.964Z,1005.72
2022-09-23T06:31:20.104Z,1005.77
2022-09-23T06:32:19.774Z,1005.76
2022-09-23T06:33:31.901Z,1005.73
2022-09-23T06:34:20.167Z,1005.76
2022-09-23T06:35:26.911Z,1005.77
2022-09-23T06:36:35.990Z,1005.77
2022-09-23T06:37:20.779Z,1005.71
2022-09-23T06:38:20.012Z,1005.71
2022-09-23T06:39:19.972Z,1005.79
2022-09-23T06:40:20.056Z,1005.76
2022-09-23T06:41:19.712Z,1005.69
2022-09-23T06:42:20.042Z,1005.69
2022-09-23T06:43:20.047Z,1005.69
2022-09-23T06:44:20.202Z,1005.69
2022-09-23T06:45:20.079Z,1005.65
2022-09-23T06:46:20.130Z,1005.64
2022-09-23T06:47:20.093Z,1005.67
2022-09-23T06:48:19.861Z,1005.69
2022-09-23T06:49:20.102Z,1005.67
2022-09-23T06:50:20.194Z,1005.66
2022-09-23T06:51:19.655Z,1005.68
2022-09-23T06:52:20.093Z,1005.72
2022-09-23T06:53:20.228Z,1005.78
2022-09-23T06:54:20.484Z,1005.66
2022-09-23T06:55:19.630Z,1005.69
2022-09-23T06:56:20.261Z,1005.67
2022-09-23T06:57:20.282Z,1005.67
2022-09-23T06:58:20.291Z,1005.67
2022-09-23T06:59:19.589Z,1005.67
2022-09-23T07:00:19.590Z,1005.69
2022-09-23T07:01:19.682Z,1005.64
2022-09-23T07:02:19.826Z,1005.66
2022-09-23T07:03:19.574Z,1005.69
2022-09-23T07:04:19.558Z,1005.68
2022-09-23T07:05:19.602Z,1005.67
2022-09-23T07:06:19.569Z,1005.65
2022-09-23T07:07:19.578Z,1005.62
2022-09-23T07:08:19.619Z,1005.66
2022-09-23T07:09:19.668Z,1005.66
2022-09-23T07:10:19.798Z,1005.71
2022-09-23T07:11:19.605Z,1005.68
2022-09-23T07:12:19.826Z,1005.69
2022-09-23T07:13:20.027Z,1005.73
2022-09-23T07:14:19.827Z,1005.71
2022-09-23T07:15:19.496Z,1005.75
2022-09-23T07:16:20.108Z,1005.75
2022-09-23T07:17:19.639Z,1005.75
2022-09-23T07:18:19.467Z,1005.79
2022-09-23T07:19:19.856Z,1005.80
2022-09-23T07:20:20.277Z,1005.77
2022-09-23T07:21:19.468Z,1005.73
2022-09-23T07:22:19.925Z,1005.76
2022-09-23T07:23:20.148Z,1005.75
2022-09-23T07:24:20.493Z,1005.74
2022-09-23T07:25:20.387Z,1005.73
2022-09-23T07:26:19.520Z,1005.75
2022-09-23T07:27:19.908Z,1005.78
2022-09-23T07:28:20.345Z,1005.80
2022-09-23T07:29:20.246Z,1005.81
2022-09-23T07:30:25.098Z,1005.74
2022-09-23T07:31:34.333Z,1005.78
2022-09-23T07:32:19.426Z,1005.74
2022-09-23T07:33:30.912Z,1005.77
2022-09-23T07:34:20.154Z,1005.80
2022-09-23T07:35:19.555Z,1005.79
2022-09-23T07:36:20.165Z,1005.75
2022-09-23T07:37:19.782Z,1005.73
2022-09-23T07:38:19.982Z,1005.79
2022-09-23T07:39:19.512Z,1005.81
2022-09-23T07:40:19.622Z,1005.80
2022-09-23T07:41:20.113Z,1005.84
2022-09-23T07:42:19.305Z,1005.79
2022-09-23T07:43:19.303Z,1005.82
2022-09-23T07:44:19.411Z,1005.78
2022-09-23T07:45:19.283Z,1005.78
2022-09-23T07:46:19.346Z,1005.78
2022-09-23T07:47:19.271Z,1005.76
2022-09-23T07:48:19.265Z,1005.82
2022-09-23T07:49:19.255Z,1005.80
2022-09-23T07:50:19.242Z,1005.75
2022-09-23T07:51:19.252Z,1005.78
2022-09-23T07:52:19.251Z,1005.77
2022-09-23T07:53:19.232Z,1005.80
2022-09-23T07:54:19.264Z,1005.72
2022-09-23T07:55:21.117Z,1005.76
2022-09-23T07:56:19.297Z,1005.77
2022-09-23T07:57:19.292Z,1005.74
2022-09-23T07:58:19.301Z,1005.71
2022-09-23T07:59:19.398Z,1005.74
2022-09-23T08:00:19.310Z,1005.72
2022-09-23T08:01:19.375Z,1005.73
2022-09-23T08:02:19.398Z,1005.69
2022-09-23T08:03:19.379Z,1005.69
2022-09-23T08:04:19.381Z,1005.73
2022-09-23T08:05:19.140Z,1005.71
2022-09-23T08:06:19.351Z,1005.73
2022-09-23T08:07:19.403Z,1005.77
2022-09-23T08:08:19.409Z,1005.78
2022-09-23T08:09:19.109Z,1005.75
2022-09-23T08:10:19.211Z,1005.78
2022-09-23T08:11:19.371Z,1005.78
2022-09-23T08:12:19.588Z,1005.76
2022-09-23T08:13:19.600Z,1005.78
2022-09-23T08:14:19.079Z,1005.75
2022-09-23T08:15:19.613Z,1005.76
2022-09-23T08:16:19.125Z,1005.70
2022-09-23T08:17:19.070Z,1005.72
2022-09-23T08:18:19.048Z,1005.77
2022-09-23T08:19:19.067Z,1005.71
2022-09-23T08:20:19.093Z,1005.73
2022-09-23T08:21:19.091Z,1005.68
2022-09-23T08:22:19.036Z,1005.68
2022-09-23T08:23:19.111Z,1005.66
2022-09-23T08:24:19.110Z,1005.68
2022-09-23T08:25:21.721Z,1005.67
2022-09-23T08:26:22.015Z,1005.66
2022-09-23T08:27:18.986Z,1005.62
2022-09-23T08:28:19.295Z,1005.62
2022-09-23T08:29:19.078Z,1005.60
2022-09-23T08:30:19.299Z,1005.56
2022-09-23T08:31:19.340Z,1005.55
2022-09-23T08:32:19.307Z,1005.57
2022-09-23T08:33:23.165Z,1005.58
2022-09-23T08:34:19.110Z,1005.57
2022-09-23T08:35:19.328Z,1005.55
2022-09-23T08:36:19.337Z,1005.49
2022-09-23T08:37:19.337Z,1005.49
2022-09-23T08:38:19.357Z,1005.53
2022-09-23T08:39:19.287Z,1005.55
2022-09-23T08:40:19.410Z,1005.52
2022-09-23T08:41:19.370Z,1005.57
2022-09-23T08:42:18.905Z,1005.58
2022-09-23T08:43:19.174Z,1005.60
2022-09-23T08:44:18.887Z,1005.58
2022-09-23T08:45:18.878Z,1005.58
2022-09-23T08:46:18.888Z,1005.62
2022-09-23T08:47:18.857Z,1005.59
2022-09-23T08:48:18.855Z,1005.57
2022-09-23T08:49:18.885Z,1005.50
2022-09-23T08:50:18.837Z,1005.50
2022-09-23T08:51:19.026Z,1005.55
2022-09-23T08:52:19.106Z,1005.54
2022-09-23T08:53:19.246Z,1005.53
2022-09-23T08:54:19.255Z,1005.52
2022-09-23T08:55:18.846Z,1005.55
2022-09-23T08:56:19.335Z,1005.51
2022-09-23T08:57:18.856Z,1005.55
2022-09-23T08:58:26.613Z,1005.58
2022-09-23T08:59:18.866Z,1005.60
2022-09-23T09:00:18.895Z,1005.53
2022-09-23T09:01:18.987Z,1005.54
2022-09-23T09:02:18.801Z,1005.56
2022-09-23T09:03:19.102Z,1005.48
2022-09-23T09:04:18.775Z,1005.48
2022-09-23T09:05:18.743Z,1005.52
2022-09-23T09:06:18.745Z,1005.51
2022-09-23T09:07:35.725Z,1005.52
2022-09-23T09:08:18.866Z,1005.57
2022-09-23T09:09:18.832Z,1005.56
2022-09-23T09:10:18.944Z,1005.51
2022-09-23T09:11:18.742Z,1005.49
2022-09-23T09:12:19.171Z,1005.54
2022-09-23T09:13:19.243Z,1005.55
2022-09-23T09:14:18.842Z,1005.47
2022-09-23T09:15:18.674Z,1005.47
2022-09-23T09:16:23.879Z,1005.48
2022-09-23T09:17:19.061Z,1005.48
2022-09-23T09:18:19.481Z,1005.46
2022-09-23T09:19:19.203Z,1005.46
2022-09-23T09:20:19.558Z,1005.48
2022-09-23T09:21:19.500Z,1005.44
2022-09-23T09:22:18.895Z,1005.48
2022-09-23T09:23:18.906Z,1005.46
2022-09-23T09:24:19.033Z,1005.46
2022-09-23T09:25:19.607Z,1005.41
2022-09-23T09:26:19.455Z,1005.48
2022-09-23T09:27:19.123Z,1005.47
2022-09-23T09:28:19.464Z,1005.45
2022-09-23T09:29:35.858Z,1005.43
2022-09-23T09:30:19.405Z,1005.36
2022-09-23T09:31:18.589Z,1005.41
2022-09-23T09:32:18.555Z,1005.41
2022-09-23T09:33:18.562Z,1005.36
2022-09-23T09:34:18.562Z,1005.37
2022-09-23T09:35:18.691Z,1005.32
2022-09-23T09:36:18.701Z,1005.30
2022-09-23T09:37:18.512Z,1005.27
2022-09-23T09:38:18.512Z,1005.30
2022-09-23T09:39:20.804Z,1005.29
2022-09-23T09:40:18.642Z,1005.25
2022-09-23T09:41:18.628Z,1005.27
2022-09-23T09:42:18.497Z,1005.27
2022-09-23T09:43:18.772Z,1005.30
2022-09-23T09:44:18.549Z,1005.24
2022-09-23T09:45:19.661Z,1005.29
2022-09-23T09:46:18.583Z,1005.23
2022-09-23T09:47:18.792Z,1005.27
2022-09-23T09:48:19.002Z,1005.28
2022-09-23T09:49:18.479Z,1005.25
2022-09-23T09:50:19.110Z,1005.21
2022-09-23T09:51:18.475Z,1005.12
2022-09-23T09:52:19.222Z,1005.16
2022-09-23T09:53:18.848Z,1005.19
2022-09-23T09:54:18.777Z,1005.15
2022-09-23T09:55:18.857Z,1005.16
2022-09-23T09:56:18.975Z,1005.14
2022-09-23T09:57:19.205Z,1005.08
2022-09-23T09:58:18.376Z,1005.06
2022-09-23T09:59:18.295Z,1005.08
2022-09-23T10:00:18.738Z,1005.03
2022-09-23T10:01:19.221Z,1005.03
2022-09-23T10:02:18.901Z,1005.04
2022-09-23T10:03:18.692Z,1005.05
2022-09-23T10:04:18.954Z,1005.02
2022-09-23T10:05:19.292Z,1004.95
2022-09-23T10:06:18.261Z,1004.98
2022-09-23T10:07:18.632Z,1004.97
2022-09-23T10:08:18.241Z,1004.97
2022-09-23T10:09:18.364Z,1004.97
2022-09-23T10:10:31.723Z,1004.95
2022-09-23T10:11:18.253Z,1004.95
2022-09-23T10:12:18.385Z,1004.92
2022-09-23T10:13:18.471Z,1004.96
2022-09-23T10:14:18.479Z,1005.00
2022-09-23T10:15:18.481Z,1004.94
2022-09-23T10:16:18.343Z,1004.99
2022-09-23T10:17:18.209Z,1004.97
2022-09-23T10:18:18.298Z,1004.98
2022-09-23T10:19:18.199Z,1004.94
2022-09-23T10:20:18.198Z,1004.98
2022-09-23T10:21:18.847Z,1004.97
2022-09-23T10:22:18.840Z,1004.96
2022-09-23T10:23:18.318Z,1004.97
2022-09-23T10:24:18.428Z,1004.93
2022-09-23T10:25:18.538Z,1004.97
2022-09-23T10:26:18.566Z,1004.96
2022-09-23T10:27:18.758Z,1004.99
2022-09-23T10:28:18.180Z,1004.93
2022-09-23T10:29:18.088Z,1004.92
2022-09-23T10:30:18.088Z,1004.94
2022-09-23T10:31:18.118Z,1004.95
2022-09-23T10:32:18.101Z,1004.97
2022-09-23T10:33:18.089Z,1004.90
2022-09-23T10:34:18.097Z,1004.91
2022-09-23T10:35:18.098Z,1004.92
2022-09-23T10:36:18.046Z,1004.93
2022-09-23T10:37:18.052Z,1004.94
2022-09-23T10:38:18.031Z,1004.93
2022-09-23T10:39:18.021Z,1004.87
2022-09-23T10:40:18.229Z,1004.87
2022-09-23T10:41:18.011Z,1004.89
2022-09-23T10:42:18.022Z,1004.88
2022-09-23T10:43:18.034Z,1004.90
2022-09-23T10:44:17.996Z,1004.82
2022-09-23T10:45:17.995Z,1004.83
2022-09-23T10:46:18.003Z,1004.82
2022-09-23T10:47:18.019Z,1004.79
2022-09-23T10:48:18.088Z,1004.76
2022-09-23T10:49:18.295Z,1004.79
2022-09-23T10:50:17.995Z,1004.76
2022-09-23T10:51:18.646Z,1004.75
2022-09-23T10:52:18.115Z,1004.73
2022-09-23T10:53:18.239Z,1004.74
2022-09-23T10:54:18.276Z,1004.73
2022-09-23T10:55:17.922Z,1004.70
2022-09-23T10:56:17.909Z,1004.78
2022-09-23T10:57:18.051Z,1004.76
2022-09-23T10:58:18.269Z,1004.72
2022-09-23T10:59:17.891Z,1004.74
2022-09-23T11:00:17.891Z,1004.68
2022-09-23T11:01:18.332Z,1004.65
2022-09-23T11:02:17.881Z,1004.65
2022-09-23T11:03:18.301Z,1004.62
2022-09-23T11:04:18.250Z,1004.67
2022-09-23T11:05:18.311Z,1004.64
2022-09-23T11:06:18.426Z,1004.62
2022-09-23T11:07:18.424Z,1004.64
2022-09-23T11:08:17.854Z,1004.64
2022-09-23T11:09:17.823Z,1004.58
2022-09-23T11:10:28.933Z,1004.63
2022-09-23T11:11:17.833Z,1004.63
2022-09-23T11:12:18.455Z,1004.59
2022-09-23T11:13:17.796Z,1004.56
2022-09-23T11:14:18.476Z,1004.57
2022-09-23T11:15:18.475Z,1004.53
2022-09-23T11:16:18.534Z,1004.48
2022-09-23T11:17:17.877Z,1004.48
2022-09-23T11:18:18.286Z,1004.43
2022-09-23T11:19:17.805Z,1004.45
2022-09-23T11:20:18.626Z,1004.43
2022-09-23T11:21:17.758Z,1004.49
2022-09-23T11:22:17.775Z,1004.45
2022-09-23T11:23:17.748Z,1004.47
2022-09-23T11:24:17.866Z,1004.44
2022-09-23T11:25:17.859Z,1004.40
2022-09-23T11:26:17.860Z,1004.43
2022-09-23T11:27:17.745Z,1004.40
2022-09-23T11:28:17.970Z,1004.34
2022-09-23T11:29:18.098Z,1004.35
2022-09-23T11:30:18.102Z,1004.35
2022-09-23T11:31:18.162Z,1004.39
2022-09-23T11:32:17.690Z,1004.40
2022-09-23T11:33:17.700Z,1004.35
2022-09-23T11:34:18.330Z,1004.32
2022-09-23T11:35:18.340Z,1004.33
2022-09-23T11:36:18.128Z,1004.35
2022-09-23T11:37:18.444Z,1004.32
2022-09-23T11:38:17.731Z,1004.32
2022-09-23T11:39:17.740Z,1004.31
2022-09-23T11:40:17.681Z,1004.29
2022-09-23T11:41:17.965Z,1004.34
2022-09-23T11:42:17.764Z,1004.31
2022-09-23T11:43:17.654Z,1004.33
2022-09-23T11:44:17.612Z,1004.25
2022-09-23T11:45:17.662Z,1004.24
2022-09-23T11:46:18.149Z,1004.24
2022-09-23T11:47:18.204Z,1004.25
2022-09-23T11:48:17.594Z,1004.27
2022-09-23T11:49:18.425Z,1004.22
2022-09-23T11:50:17.617Z,1004.26
2022-09-23T11:51:18.614Z,1004.17
2022-09-23T11:52:18.243Z,1004.12
2022-09-23T11:53:17.833Z,1004.13
2022-09-23T11:54:20.633Z,1004.16
2022-09-23T11:55:22.616Z,1004.13
2022-09-23T11:56:30.234Z,1004.14
2022-09-23T11:57:17.534Z,1004.14
2022-09-23T11:58:25.320Z,1004.14
2022-09-23T11:59:18.268Z,1004.21
2022-09-23T12:00:17.506Z,1004.19
2022-09-23T12:01:19.462Z,1004.16
2022-09-23T12:02:21.204Z,1004.13
2022-09-23T12:03:17.632Z,1004.12
2022-09-23T12:04:20.712Z,1004.09
2022-09-23T12:05:17.561Z,1004.06